createdAt,value
2023-10-02T00:00:43.668Z,12.89
2023-10-02T00:03:33.828Z,12.90
2023-10-02T00:06:03.328Z,12.91
2023-10-02T00:08:43.079Z,12.88
2023-10-02T00:11:32.601Z,12.83
2023-10-02T00:14:16.589Z,12.76
2023-10-02T00:16:59.427Z,12.72
2023-10-02T00:19:30.256Z,12.68
2023-10-02T00:22:04.474Z,12.67
2023-10-02T00:24:36.515Z,12.65
2023-10-02T00:27:06.481Z,12.65
2023-10-02T00:29:35.880Z,12.70
2023-10-02T00:32:11.717Z,12.73
2023-10-02T00:34:42.075Z,12.75
2023-10-02T00:37:13.563Z,12.76
2023-10-02T00:39:48.012Z,12.75
2023-10-02T00:42:17.191Z,12.72
2023-10-02T00:44:54.913Z,12.69
2023-10-02T00:47:42.961Z,12.68
2023-10-02T00:50:17.752Z,12.65
2023-10-02T00:52:57.214Z,12.65
2023-10-02T00:55:27.558Z,12.64
2023-10-02T00:57:57.501Z,12.64
2023-10-02T01:00:36.574Z,12.63
2023-10-02T01:03:10.315Z,12.63
2023-10-02T01:05:48.276Z,12.60
2023-10-02T01:08:43.514Z,12.61
2023-10-02T01:11:15.473Z,12.62
2023-10-02T01:13:45.308Z,12.60
2023-10-02T01:16:17.695Z,12.60
2023-10-02T01:18:48.802Z,12.61
2023-10-02T01:21:24.848Z,12.62
2023-10-02T01:24:08.730Z,12.63
2023-10-02T01:26:41.109Z,12.64
2023-10-02T01:29:11.716Z,12.66
2023-10-02T01:31:44.886Z,12.70
2023-10-02T01:34:33.832Z,12.71
2023-10-02T01:37:24.952Z,12.70
2023-10-02T01:40:13.507Z,12.68
2023-10-02T01:42:44.521Z,12.65
2023-10-02T01:45:13.498Z,12.65
2023-10-02T01:47:42.933Z,12.65
2023-10-02T01:50:11.732Z,12.63
2023-10-02T01:52:51.270Z,12.62
2023-10-02T01:55:29.736Z,12.63
2023-10-02T01:58:17.111Z,12.61
2023-10-02T02:00:46.386Z,12.61
2023-10-02T02:03:18.526Z,12.61
2023-10-02T02:05:50.018Z,12.61
2023-10-02T02:08:24.931Z,12.61
2023-10-02T02:11:07.756Z,12.65
2023-10-02T02:13:44.673Z,12.67
2023-10-02T02:16:22.486Z,12.70
2023-10-02T02:18:54.424Z,12.73
2023-10-02T02:21:25.267Z,12.74
2023-10-02T02:24:04.305Z,12.74
2023-10-02T02:26:33.858Z,12.74
2023-10-02T02:29:03.560Z,12.76
2023-10-02T02:31:33.356Z,12.76
2023-10-02T02:34:04.669Z,12.78
2023-10-02T02:36:36.144Z,12.81
2023-10-02T02:39:17.985Z,12.83
2023-10-02T02:41:49.054Z,12.84
2023-10-02T02:44:36.664Z,12.86
2023-10-02T02:47:08.774Z,12.87
2023-10-02T02:49:52.288Z,12.87
2023-10-02T02:52:25.462Z,12.87
2023-10-02T02:54:59.643Z,12.88
2023-10-02T02:57:31.973Z,12.88
2023-10-02T03:00:17.287Z,12.88
2023-10-02T03:02:48.394Z,12.88
2023-10-02T03:05:22.405Z,12.87
2023-10-02T03:07:54.804Z,12.87
2023-10-02T03:10:24.756Z,12.87
2023-10-02T03:12:54.321Z,12.87
2023-10-02T03:15:46.386Z,12.85
2023-10-02T03:18:30.851Z,12.84
2023-10-02T03:21:00.735Z,12.82
2023-10-02T03:23:31.183Z,12.82
2023-10-02T03:25:59.793Z,12.82
2023-10-02T03:28:28.438Z,12.79
2023-10-02T03:30:58.056Z,12.78
2023-10-02T03:33:31.764Z,12.76
2023-10-02T03:36:08.936Z,12.76
2023-10-02T03:38:42.286Z,12.78
2023-10-02T03:41:14.059Z,12.81
2023-10-02T03:43:47.213Z,12.82
2023-10-02T03:46:23.442Z,12.80
2023-10-02T03:48:52.767Z,12.78
2023-10-02T03:51:36.337Z,12.78
2023-10-02T03:54:18.313Z,12.77
2023-10-02T03:56:49.136Z,12.74
2023-10-02T03:59:18.158Z,12.78
2023-10-02T04:01:47.736Z,12.79
2023-10-02T04:04:22.003Z,12.78
2023-10-02T04:06:53.901Z,12.79
2023-10-02T04:09:24.380Z,12.77
2023-10-02T04:11:52.488Z,12.77
2023-10-02T04:14:32.010Z,12.76
2023-10-02T04:17:13.726Z,12.78
2023-10-02T04:19:49.017Z,12.78
2023-10-02T04:22:22.678Z,12.80
2023-10-02T04:24:54.072Z,12.80
2023-10-02T04:27:28.683Z,12.82
2023-10-02T04:30:21.886Z,12.83
2023-10-02T04:32:52.076Z,12.83
2023-10-02T04:35:35.747Z,12.83
2023-10-02T04:38:08.245Z,12.85
2023-10-02T04:40:50.201Z,12.86
2023-10-02T04:43:24.036Z,12.88
2023-10-02T04:45:54.836Z,12.89
2023-10-02T04:48:27.767Z,12.91
2023-10-02T04:50:56.951Z,12.93
2023-10-02T04:53:25.753Z,12.95
2023-10-02T04:56:09.494Z,12.95
2023-10-02T04:58:40.528Z,12.97
2023-10-02T05:01:36.292Z,12.97
2023-10-02T05:04:07.310Z,12.98
2023-10-02T05:06:52.921Z,13.01
2023-10-02T05:09:33.025Z,13.02
2023-10-02T05:12:04.893Z,13.04
2023-10-02T05:14:48.104Z,13.05
2023-10-02T05:17:39.171Z,13.08
2023-10-02T05:20:15.599Z,13.11
2023-10-02T05:22:45.893Z,13.15
2023-10-02T05:25:18.702Z,13.19
2023-10-02T05:27:48.631Z,13.23
2023-10-02T05:30:18.605Z,13.26
2023-10-02T05:32:47.788Z,13.30
2023-10-02T05:35:24.252Z,13.31
2023-10-02T05:37:55.230Z,13.32
2023-10-02T05:40:38.994Z,13.35
2023-10-02T05:43:11.196Z,13.37
2023-10-02T05:45:47.644Z,13.39
2023-10-02T05:48:28.220Z,13.43
2023-10-02T05:50:58.466Z,13.47
2023-10-02T05:53:29.683Z,13.48
2023-10-02T05:56:05.755Z,13.51
2023-10-02T05:58:36.429Z,13.54
2023-10-02T06:01:07.380Z,13.58
2023-10-02T06:03:37.731Z,13.64
2023-10-02T06:06:18.788Z,13.69
2023-10-02T06:08:52.522Z,13.75
2023-10-02T06:11:27.606Z,13.80
2023-10-02T06:13:58.584Z,13.86
2023-10-02T06:16:30.337Z,13.89
2023-10-02T06:19:02.867Z,13.92
2023-10-02T06:21:46.329Z,13.98
2023-10-02T06:24:17.768Z,14.04
2023-10-02T06:26:57.898Z,14.08
2023-10-02T06:29:29.221Z,14.13
2023-10-02T06:32:05.655Z,14.20
2023-10-02T06:34:38.589Z,14.36
2023-10-02T06:37:12.804Z,14.52
2023-10-02T06:39:43.526Z,14.59
2023-10-02T06:42:16.440Z,14.63
2023-10-02T06:44:54.796Z,14.71
2023-10-02T06:47:28.770Z,14.81
2023-10-02T06:50:03.666Z,14.92
2023-10-02T06:52:34.028Z,15.07
2023-10-02T06:55:04.071Z,15.23
2023-10-02T06:57:37.083Z,15.35
2023-10-02T07:00:10.519Z,15.45
2023-10-02T07:02:39.251Z,15.53
2023-10-02T07:05:10.876Z,15.59
2023-10-02T07:07:59.644Z,15.62
2023-10-02T07:10:30.238Z,15.71
2023-10-02T07:13:18.822Z,15.78
2023-10-02T07:15:48.201Z,15.86
2023-10-02T07:18:16.876Z,15.97
2023-10-02T07:20:52.259Z,16.11
2023-10-02T07:23:21.007Z,16.29
2023-10-02T07:25:51.400Z,16.50
2023-10-02T07:28:21.446Z,16.74
2023-10-02T07:30:51.073Z,16.95
2023-10-02T07:33:21.116Z,17.19
2023-10-02T07:35:54.573Z,17.51
2023-10-02T07:38:30.664Z,17.83
2023-10-02T07:41:06.837Z,18.42
2023-10-02T07:43:36.026Z,18.71
2023-10-02T07:46:14.992Z,18.97
2023-10-02T07:48:56.477Z,19.25
2023-10-02T07:51:31.757Z,19.47
2023-10-02T07:54:01.584Z,19.56
2023-10-02T07:56:30.332Z,19.52
2023-10-02T07:59:01.919Z,19.48
2023-10-02T08:01:34.358Z,19.44
2023-10-02T08:04:03.803Z,19.39
2023-10-02T08:06:37.405Z,19.32
2023-10-02T08:09:21.690Z,19.22
2023-10-02T08:11:51.844Z,19.11
2023-10-02T08:14:35.673Z,19.06
2023-10-02T08:17:09.141Z,19.05
2023-10-02T08:19:37.960Z,19.13
2023-10-02T08:22:06.665Z,19.47
2023-10-02T08:24:38.371Z,19.82
2023-10-02T08:27:07.086Z,20.16
2023-10-02T08:29:35.851Z,20.58
2023-10-02T08:32:05.374Z,20.95
2023-10-02T08:34:34.178Z,21.29
2023-10-02T08:37:06.178Z,21.77
2023-10-02T08:39:34.814Z,22.33
2023-10-02T08:42:08.749Z,22.45
2023-10-02T08:44:38.937Z,22.36
2023-10-02T08:47:08.198Z,22.26
2023-10-02T08:49:37.202Z,22.28
2023-10-02T08:52:10.457Z,22.41
2023-10-02T08:54:41.617Z,22.70
2023-10-02T08:57:10.691Z,23.13
2023-10-02T08:59:40.145Z,23.66
2023-10-02T09:02:14.530Z,24.39
2023-10-02T09:05:07.185Z,25.19
2023-10-02T09:07:46.387Z,25.62
2023-10-02T09:10:25.321Z,26.25
2023-10-02T09:13:12.511Z,27.31
2023-10-02T09:15:47.561Z,28.50
2023-10-02T09:18:34.599Z,29.30
2023-10-02T09:21:14.023Z,29.40
2023-10-02T09:23:52.617Z,29.68
2023-10-02T09:26:24.262Z,30.69
2023-10-02T09:29:00.035Z,31.59
2023-10-02T09:31:31.751Z,31.68
2023-10-02T09:34:16.400Z,31.18
2023-10-02T09:37:47.856Z,31.18
2023-10-02T09:40:14.858Z,30.45
2023-10-02T09:42:48.887Z,29.47
2023-10-02T09:45:31.382Z,28.72
2023-10-02T09:48:06.828Z,28.05
2023-10-02T09:50:47.194Z,27.45
2023-10-02T09:53:18.166Z,26.92
2023-10-02T09:56:08.064Z,26.54
2023-10-02T09:58:48.488Z,26.32
2023-10-02T10:01:36.147Z,26.04
2023-10-02T10:04:28.505Z,25.66
2023-10-02T10:07:10.288Z,25.34
2023-10-02T10:09:51.376Z,25.15
2023-10-02T10:12:51.550Z,24.99
2023-10-02T10:15:27.019Z,24.94
2023-10-02T10:17:59.508Z,24.72
2023-10-02T10:20:30.639Z,24.45
2023-10-02T10:23:19.575Z,24.20
2023-10-02T10:25:54.043Z,23.96
2023-10-02T10:28:30.266Z,23.79
2023-10-02T10:31:02.580Z,23.65
2023-10-02T10:33:42.418Z,23.49
2023-10-02T10:36:35.711Z,23.37
2023-10-02T10:39:20.174Z,23.29
2023-10-02T10:41:58.088Z,23.19
2023-10-02T10:44:34.337Z,23.11
2023-10-02T10:47:04.368Z,23.01
2023-10-02T10:50:13.964Z,22.91
2023-10-02T10:52:45.053Z,22.80
2023-10-02T10:55:33.805Z,22.70
2023-10-02T10:58:07.102Z,22.66
2023-10-02T11:00:42.586Z,22.60
2023-10-02T11:03:14.674Z,22.56
2023-10-02T11:05:44.097Z,22.51
2023-10-02T11:08:26.668Z,22.45
2023-10-02T11:11:19.142Z,22.45
2023-10-02T11:13:52.331Z,22.45
2023-10-02T11:16:39.222Z,22.41
2023-10-02T11:19:15.097Z,22.35
2023-10-02T11:22:15.583Z,22.33
2023-10-02T11:24:46.053Z,22.29
2023-10-02T11:27:16.819Z,22.24
2023-10-02T11:30:01.493Z,22.21
2023-10-02T11:32:48.884Z,22.20
2023-10-02T11:35:18.586Z,22.20
2023-10-02T11:37:48.223Z,22.19
2023-10-02T11:40:16.984Z,22.18
2023-10-02T11:42:45.490Z,22.14
2023-10-02T11:45:15.742Z,22.12
2023-10-02T11:47:46.100Z,22.10
2023-10-02T11:50:17.639Z,22.03
2023-10-02T11:52:48.219Z,22.00
2023-10-02T11:55:18.650Z,21.98
2023-10-02T11:57:51.908Z,21.92
2023-10-02T12:00:22.394Z,21.91
2023-10-02T12:02:51.737Z,21.89
2023-10-02T12:05:21.164Z,21.91
2023-10-02T12:07:49.821Z,21.92
2023-10-02T12:10:18.705Z,21.93
2023-10-02T12:12:47.388Z,21.92
2023-10-02T12:15:17.901Z,21.85
2023-10-02T12:17:48.385Z,21.82
2023-10-02T12:20:23.200Z,21.82
2023-10-02T12:22:52.280Z,21.84
2023-10-02T12:25:20.992Z,21.84
2023-10-02T12:27:50.908Z,21.84
2023-10-02T12:30:19.789Z,21.83
2023-10-02T12:32:50.559Z,21.78
2023-10-02T12:35:19.362Z,21.72
2023-10-02T12:37:50.963Z,21.70
2023-10-02T12:40:21.611Z,21.67
2023-10-02T12:42:51.040Z,21.66
2023-10-02T12:45:19.691Z,21.69
2023-10-02T12:47:48.408Z,21.72
2023-10-02T12:50:17.374Z,21.74
2023-10-02T12:52:46.001Z,21.71
2023-10-02T12:55:15.916Z,21.67
2023-10-02T12:57:44.843Z,21.62
2023-10-02T13:00:18.881Z,21.61
2023-10-02T13:02:48.739Z,21.59
2023-10-02T13:05:20.353Z,21.57
2023-10-02T13:07:51.304Z,21.55
2023-10-02T13:10:20.032Z,21.54
2023-10-02T13:12:49.773Z,21.55
2023-10-02T13:15:19.613Z,21.52
2023-10-02T13:17:49.096Z,21.48
2023-10-02T13:20:17.736Z,21.49
2023-10-02T13:22:46.398Z,21.50
2023-10-02T13:25:14.958Z,21.51
2023-10-02T13:27:43.747Z,21.51
2023-10-02T13:30:13.406Z,21.52
2023-10-02T13:32:42.449Z,21.49
2023-10-02T13:35:11.649Z,21.43
2023-10-02T13:37:40.676Z,21.41
2023-10-02T13:40:19.284Z,21.41
2023-10-02T13:42:49.888Z,21.41
2023-10-02T13:45:19.573Z,21.39
2023-10-02T13:47:48.934Z,21.40
2023-10-02T13:50:18.089Z,21.41
2023-10-02T13:52:46.896Z,21.40
2023-10-02T13:55:22.983Z,21.40
2023-10-02T13:57:51.881Z,21.35
2023-10-02T14:00:21.262Z,21.32
2023-10-02T14:02:51.705Z,21.30
2023-10-02T14:05:20.844Z,21.30
2023-10-02T14:07:50.383Z,21.26
2023-10-02T14:10:19.298Z,21.25
2023-10-02T14:12:48.009Z,21.23
2023-10-02T14:15:17.375Z,21.20
2023-10-02T14:17:46.270Z,21.17
2023-10-02T14:20:15.870Z,21.17
2023-10-02T14:22:47.401Z,21.15
2023-10-02T14:25:17.038Z,21.12
2023-10-02T14:27:46.185Z,21.11
2023-10-02T14:30:14.963Z,21.11
2023-10-02T14:32:47.429Z,21.13
2023-10-02T14:35:17.784Z,21.10
2023-10-02T14:37:48.737Z,21.09
2023-10-02T14:40:20.549Z,21.05
2023-10-02T14:42:49.768Z,21.00
2023-10-02T14:45:18.404Z,20.98
2023-10-02T14:47:47.152Z,20.97
2023-10-02T14:50:16.902Z,20.98
2023-10-02T14:52:45.432Z,20.97
2023-10-02T14:55:18.338Z,20.96
2023-10-02T14:57:48.676Z,20.95
2023-10-02T15:00:21.764Z,20.93
2023-10-02T15:02:52.385Z,20.91
2023-10-02T15:05:23.228Z,20.91
2023-10-02T15:07:53.499Z,20.89
2023-10-02T15:10:23.799Z,20.86
2023-10-02T15:12:53.434Z,20.84
2023-10-02T15:15:24.801Z,20.80
2023-10-02T15:17:53.984Z,20.75
2023-10-02T15:20:26.397Z,20.69
2023-10-02T15:22:57.867Z,20.62
2023-10-02T15:25:30.761Z,20.53
2023-10-02T15:28:01.185Z,20.41
2023-10-02T15:30:30.104Z,20.35
2023-10-02T15:32:59.242Z,20.32
2023-10-02T15:35:27.906Z,20.24
2023-10-02T15:38:01.856Z,20.14
2023-10-02T15:40:34.032Z,20.05
2023-10-02T15:43:03.894Z,19.95
2023-10-02T15:45:32.712Z,19.89
2023-10-02T15:48:01.527Z,19.83
2023-10-02T15:50:31.385Z,19.78
2023-10-02T15:53:00.084Z,19.76
2023-10-02T15:55:29.620Z,19.70
2023-10-02T15:57:58.194Z,19.66
2023-10-02T16:00:27.255Z,19.61
2023-10-02T16:02:58.021Z,19.50
2023-10-02T16:05:29.318Z,19.41
2023-10-02T16:08:00.412Z,19.30
2023-10-02T16:10:29.677Z,19.18
2023-10-02T16:12:58.247Z,19.07
2023-10-02T16:15:28.902Z,19.00
2023-10-02T16:17:59.312Z,18.98
2023-10-02T16:20:29.937Z,18.89
2023-10-02T16:22:58.050Z,18.78
2023-10-02T16:25:28.772Z,18.69
2023-10-02T16:27:58.207Z,18.59
2023-10-02T16:30:27.549Z,18.48
2023-10-02T16:32:58.104Z,18.40
2023-10-02T16:35:29.835Z,18.32
2023-10-02T16:38:00.266Z,18.26
2023-10-02T16:40:29.687Z,18.23
2023-10-02T16:43:00.523Z,18.16
2023-10-02T16:45:29.470Z,18.08
2023-10-02T16:48:01.958Z,17.99
2023-10-02T16:50:31.019Z,17.89
2023-10-02T16:52:59.998Z,17.78
2023-10-02T16:55:30.166Z,17.67
2023-10-02T16:57:59.536Z,17.59
2023-10-02T17:00:28.760Z,17.50
2023-10-02T17:02:58.333Z,17.42
2023-10-02T17:05:27.604Z,17.34
2023-10-02T17:07:56.879Z,17.27
2023-10-02T17:10:25.673Z,17.20
2023-10-02T17:12:57.836Z,17.14
2023-10-02T17:15:28.960Z,17.14
2023-10-02T17:17:58.360Z,17.11
2023-10-02T17:20:27.606Z,17.08
2023-10-02T17:22:59.090Z,17.03
2023-10-02T17:25:28.971Z,16.97
2023-10-02T17:28:00.343Z,16.92
2023-10-02T17:30:31.774Z,16.87
2023-10-02T17:33:02.487Z,16.80
2023-10-02T17:35:31.673Z,16.76
2023-10-02T17:38:01.372Z,16.74
2023-10-02T17:40:31.250Z,16.68
2023-10-02T17:43:00.065Z,16.65
2023-10-02T17:45:28.592Z,16.57
2023-10-02T17:47:57.888Z,16.49
2023-10-02T17:50:26.671Z,16.41
2023-10-02T17:52:55.557Z,16.35
2023-10-02T17:55:24.407Z,16.28
2023-10-02T17:57:53.084Z,16.23
2023-10-02T18:00:22.664Z,16.18
2023-10-02T18:02:51.574Z,16.13
2023-10-02T18:05:20.746Z,16.07
2023-10-02T18:07:49.863Z,16.00
2023-10-02T18:10:19.604Z,15.93
2023-10-02T18:12:48.387Z,15.88
2023-10-02T18:15:18.971Z,15.84
2023-10-02T18:17:48.240Z,15.80
2023-10-02T18:20:17.717Z,15.77
2023-10-02T18:22:46.740Z,15.74
2023-10-02T18:25:19.407Z,15.71
2023-10-02T18:27:49.685Z,15.68
2023-10-02T18:30:18.531Z,15.65
2023-10-02T18:32:47.712Z,15.63
2023-10-02T18:35:19.233Z,15.62
2023-10-02T18:37:47.770Z,15.63
2023-10-02T18:40:16.867Z,15.61
2023-10-02T18:42:45.396Z,15.60
2023-10-02T18:45:14.417Z,15.59
2023-10-02T18:47:44.702Z,15.57
2023-10-02T18:50:13.154Z,15.57
2023-10-02T18:52:41.947Z,15.56
2023-10-02T18:55:11.590Z,15.57
2023-10-02T18:57:40.165Z,15.59
2023-10-02T19:00:11.764Z,15.60
2023-10-02T19:02:40.557Z,15.62
2023-10-02T19:05:10.156Z,15.63
2023-10-02T19:07:39.389Z,15.66
2023-10-02T19:10:10.629Z,15.68
2023-10-02T19:12:40.074Z,15.70
2023-10-02T19:15:10.681Z,15.72
2023-10-02T19:17:39.762Z,15.69
2023-10-02T19:20:12.654Z,15.69
2023-10-02T19:22:42.240Z,15.69
2023-10-02T19:25:12.568Z,15.67
2023-10-02T19:27:42.590Z,15.65
2023-10-02T19:30:13.553Z,15.67
2023-10-02T19:32:42.996Z,15.69
2023-10-02T19:35:12.863Z,15.67
2023-10-02T19:37:41.484Z,15.67
2023-10-02T19:40:12.331Z,15.67
2023-10-02T19:42:40.950Z,15.61
2023-10-02T19:45:12.304Z,15.55
2023-10-02T19:47:43.926Z,15.53
2023-10-02T19:50:15.140Z,15.51
2023-10-02T19:52:43.830Z,15.49
2023-10-02T19:55:12.377Z,15.45
2023-10-02T19:57:41.185Z,15.42
2023-10-02T20:00:12.698Z,15.41
2023-10-02T20:02:45.373Z,15.33
2023-10-02T20:05:14.266Z,15.28
2023-10-02T20:07:43.416Z,15.26
2023-10-02T20:10:12.578Z,15.20
2023-10-02T20:12:42.269Z,15.11
2023-10-02T20:15:12.434Z,15.05
2023-10-02T20:17:41.490Z,14.99
2023-10-02T20:20:11.378Z,14.95
2023-10-02T20:22:40.589Z,14.90
2023-10-02T20:25:12.638Z,14.86
2023-10-02T20:27:41.545Z,14.81
2023-10-02T20:30:15.238Z,14.78
2023-10-02T20:32:44.206Z,14.76
2023-10-02T20:35:12.897Z,14.74
2023-10-02T20:37:42.115Z,14.69
2023-10-02T20:40:15.793Z,14.67
2023-10-02T20:42:44.694Z,14.64
2023-10-02T20:45:13.774Z,14.63
2023-10-02T20:47:42.447Z,14.62
2023-10-02T20:50:11.307Z,14.60
2023-10-02T20:52:39.845Z,14.59
2023-10-02T20:55:10.331Z,14.54
2023-10-02T20:57:39.609Z,14.50
2023-10-02T21:00:14.686Z,14.49
2023-10-02T21:02:45.154Z,14.47
2023-10-02T21:05:14.501Z,14.46
2023-10-02T21:07:43.243Z,14.45
2023-10-02T21:10:12.185Z,14.44
2023-10-02T21:12:41.344Z,14.41
2023-10-02T21:15:12.684Z,14.38
2023-10-02T21:17:42.447Z,14.37
2023-10-02T21:20:15.641Z,14.34
2023-10-02T21:22:46.105Z,14.32
2023-10-02T21:25:16.148Z,14.32
2023-10-02T21:27:45.030Z,14.30
2023-10-02T21:30:14.239Z,14.30
2023-10-02T21:32:43.958Z,14.32
2023-10-02T21:35:13.046Z,14.33
2023-10-02T21:37:42.360Z,14.33
2023-10-02T21:40:13.737Z,14.33
2023-10-02T21:42:43.488Z,14.33
2023-10-02T21:45:12.655Z,14.35
2023-10-02T21:47:42.247Z,14.36
2023-10-02T21:50:12.024Z,14.36
2023-10-02T21:52:41.152Z,14.36
2023-10-02T21:55:12.506Z,14.34
2023-10-02T21:57:41.341Z,14.35
2023-10-02T22:00:35.789Z,14.38
2023-10-02T22:03:06.849Z,14.40
2023-10-02T22:05:35.952Z,14.39
2023-10-02T22:08:06.378Z,14.41
2023-10-02T22:10:34.357Z,14.44
2023-10-02T22:13:03.361Z,14.43
2023-10-02T22:15:33.815Z,14.43
2023-10-02T22:18:04.238Z,14.41
2023-10-02T22:20:32.031Z,14.36
2023-10-02T22:23:00.681Z,14.35
2023-10-02T22:25:29.572Z,14.33
2023-10-02T22:28:00.592Z,14.33
2023-10-02T22:30:31.549Z,14.33
2023-10-02T22:33:00.893Z,14.34
2023-10-02T22:35:31.743Z,14.37
2023-10-02T22:38:01.068Z,14.41
2023-10-02T22:40:31.705Z,14.47
2023-10-02T22:43:03.463Z,14.49
2023-10-02T22:45:34.418Z,14.49
2023-10-02T22:48:05.112Z,14.53
2023-10-02T22:50:33.913Z,14.57
2023-10-02T22:53:03.172Z,14.60
2023-10-02T22:55:32.814Z,14.64
2023-10-02T22:58:01.524Z,14.65
2023-10-02T23:00:30.443Z,14.66
2023-10-02T23:02:59.231Z,14.68
2023-10-02T23:05:29.450Z,14.71
2023-10-02T23:07:59.030Z,14.74
2023-10-02T23:10:29.435Z,14.79
2023-10-02T23:12:57.509Z,14.79
2023-10-02T23:15:27.740Z,14.76
2023-10-02T23:17:57.325Z,14.77
2023-10-02T23:20:26.431Z,14.78
2023-10-02T23:22:55.764Z,14.81
2023-10-02T23:25:27.464Z,14.83
2023-10-02T23:27:56.216Z,14.86
2023-10-02T23:30:24.837Z,14.88
2023-10-02T23:32:56.699Z,14.91
2023-10-02T23:35:26.579Z,14.94
2023-10-02T23:37:57.637Z,14.97
2023-10-02T23:40:27.055Z,15.00
2023-10-02T23:43:00.693Z,15.01
2023-10-02T23:45:29.437Z,15.03
2023-10-02T23:48:01.431Z,15.05
2023-10-02T23:50:32.482Z,15.07
2023-10-02T23:53:01.923Z,15.09
2023-10-02T23:55:30.448Z,15.10
2023-10-02T23:57:59.140Z,15.10
